Time;durP1;ratioP1;P1;durP2;ratioP2;P2;SDS_P1;SDS_P2;PMS_P1;PMS_P2;Temp;Humidity;BMP_temperature;BMP_pressure;BME280_temperature;BME280_humidity;BME280_pressure;Samples;Min_cycle;Max_cycle;Signal;HPM_P1;HPM_P2
2022/01/29 00:00:35;;;;;;;10.38;4.43;;;3.80;99.90;;;;;;5043757;28;20204;-79
2022/01/29 00:03:01;;;;;;;13.13;5.25;;;3.70;99.90;;;;;;5053073;28;20230;-80
2022/01/29 00:05:28;;;;;;;15.55;4.20;;;3.70;99.90;;;;;;5054136;28;20219;-79
2022/01/29 00:07:55;;;;;;;17.08;4.35;;;4.00;99.90;;;;;;5053143;28;20203;-79
2022/01/29 00:10:21;;;;;;;15.13;4.82;;;3.80;99.90;;;;;;5054769;28;20195;-79
2022/01/29 00:12:48;;;;;;;20.17;4.20;;;3.80;99.90;;;;;;5054728;28;20207;-79
2022/01/29 00:15:16;;;;;;;20.60;5.50;;;3.70;99.90;;;;;;5044303;28;20259;-80
2022/01/29 00:17:42;;;;;;;21.20;5.10;;;3.70;99.90;;;;;;5042821;28;20281;-80
2022/01/29 00:20:10;;;;;;;15.88;4.00;;;3.70;99.90;;;;;;5042484;28;20582;-79
2022/01/29 00:22:37;;;;;;;14.35;4.80;;;3.60;99.90;;;;;;5042877;28;20208;-80
2022/01/29 00:25:04;;;;;;;17.70;3.88;;;3.60;99.90;;;;;;5041750;28;20238;-80
2022/01/29 00:27:34;;;;;;;14.23;4.30;;;3.60;99.90;;;;;;5041882;28;20261;-79
2022/01/29 00:30:06;;;;;;;21.75;4.85;;;3.60;99.90;;;;;;5041897;28;20199;-80
2022/01/29 00:32:34;;;;;;;24.98;4.90;;;3.60;99.90;;;;;;5043071;28;20198;-78
2022/01/29 00:35:01;;;;;;;12.43;4.45;;;3.60;99.90;;;;;;5041887;28;20266;-80
2022/01/29 00:37:28;;;;;;;14.60;4.60;;;3.60;99.90;;;;;;5041194;28;20705;-80
2022/01/29 00:39:54;;;;;;;7.95;3.83;;;3.70;99.90;;;;;;5041164;28;20231;-80
2022/01/29 00:42:21;;;;;;;17.55;3.45;;;3.50;99.90;;;;;;5047874;28;20256;-77
2022/01/29 00:44:48;;;;;;;13.48;4.00;;;3.60;99.90;;;;;;5047409;28;20669;-80
2022/01/29 00:47:15;;;;;;;14.00;4.03;;;3.60;99.90;;;;;;5043201;28;20204;-81
2022/01/29 00:49:44;;;;;;;19.17;5.80;;;3.60;99.90;;;;;;5043334;28;20200;-80
2022/01/29 00:52:10;;;;;;;8.88;4.03;;;3.60;99.90;;;;;;5044921;28;20222;-81
2022/01/29 00:54:37;;;;;;;12.75;3.97;;;3.60;99.90;;;;;;5045755;28;20246;-80
2022/01/29 00:57:05;;;;;;;14.68;4.10;;;3.60;99.90;;;;;;5043725;28;20204;-80
2022/01/29 00:59:33;;;;;;;13.55;4.55;;;3.60;99.90;;;;;;5042502;28;20635;-80
2022/01/29 01:02:00;;;;;;;11.05;5.05;;;3.60;99.90;;;;;;5048431;28;20208;-79
2022/01/29 01:04:27;;;;;;;16.13;6.45;;;3.60;99.90;;;;;;5048320;28;20236;-80
2022/01/29 01:06:55;;;;;;;17.52;4.95;;;3.70;99.90;;;;;;5043528;28;20203;-80
2022/01/29 01:09:21;;;;;;;16.63;4.45;;;3.70;99.90;;;;;;5041919;28;20200;-79
2022/01/29 01:11:48;;;;;;;10.55;4.22;;;3.70;99.90;;;;;;5055229;28;20203;-79
2022/01/29 01:14:15;;;;;;;12.95;4.80;;;3.70;99.90;;;;;;5057180;28;20311;-79
2022/01/29 01:16:41;;;;;;;15.75;4.38;;;3.70;99.90;;;;;;5059443;28;20211;-79
2022/01/29 01:19:08;;;;;;;16.80;3.97;;;3.70;99.90;;;;;;5054466;28;20227;-80
2022/01/29 01:21:34;;;;;;;13.00;5.63;;;3.70;99.90;;;;;;5044398;28;20203;-78
2022/01/29 01:24:02;;;;;;;15.05;4.13;;;3.60;99.90;;;;;;5039313;28;20247;-79
2022/01/29 01:26:29;;;;;;;18.80;4.00;;;3.70;99.90;;;;;;5038245;28;20184;-80
2022/01/29 01:28:56;;;;;;;13.35;3.92;;;3.70;99.90;;;;;;5038506;28;20211;-78
2022/01/29 01:31:22;;;;;;;18.30;5.82;;;3.80;99.90;;;;;;5037860;28;20230;-79
2022/01/29 01:33:50;;;;;;;10.35;3.45;;;2.70;99.90;;;;;;5037535;28;20225;-80
2022/01/29 01:36:20;;;;;;;23.02;5.93;;;3.70;99.90;;;;;;5037967;28;20308;-79
2022/01/29 01:38:48;;;;;;;17.50;5.68;;;3.70;99.90;;;;;;5038104;28;20223;-79
2022/01/29 01:41:22;;;;;;;12.85;4.32;;;3.60;99.90;;;;;;5037733;28;20211;-79
2022/01/29 01:43:48;;;;;;;14.13;4.30;;;3.60;99.90;;;;;;5039147;28;20192;-79
2022/01/29 01:46:15;;;;;;;13.85;4.68;;;3.70;99.90;;;;;;5042171;28;20207;-79
2022/01/29 01:48:42;;;;;;;13.32;4.15;;;3.70;99.90;;;;;;5039605;28;20239;-79
2022/01/29 01:51:09;;;;;;;17.70;3.75;;;3.70;99.90;;;;;;5042014;28;20621;-79
2022/01/29 01:53:35;;;;;;;11.43;3.75;;;4.00;99.90;;;;;;5043113;28;20230;-79
2022/01/29 01:56:02;;;;;;;17.08;5.03;;;3.70;99.90;;;;;;5045724;28;20218;-79
2022/01/29 01:58:30;;;;;;;22.10;6.13;;;3.70;99.90;;;;;;5041460;28;20216;-79
2022/01/29 02:00:57;;;;;;;16.52;4.97;;;3.70;99.90;;;;;;5041522;28;20234;-78
2022/01/29 02:03:23;;;;;;;9.13;3.85;;;3.70;99.90;;;;;;5046990;28;20203;-77
2022/01/29 02:05:52;;;;;;;17.38;4.40;;;3.70;99.90;;;;;;5047947;28;20231;-77
2022/01/29 02:08:19;;;;;;;13.57;4.47;;;3.70;99.90;;;;;;5045139;28;20200;-77
2022/01/29 02:10:47;;;;;;;8.85;3.78;;;4.00;99.90;;;;;;5044059;28;20203;-79
2022/01/29 02:13:14;;;;;;;13.52;4.90;;;3.70;99.90;;;;;;5042320;28;20617;-80
2022/01/29 02:15:42;;;;;;;13.63;4.18;;;3.70;99.90;;;;;;5040345;28;20223;-82
2022/01/29 02:18:13;;;;;;;18.38;4.35;;;3.70;99.90;;;;;;5038765;28;20289;-81
2022/01/29 02:20:41;;;;;;;23.33;5.15;;;3.70;99.90;;;;;;5039347;28;20192;-81
2022/01/29 02:23:09;;;;;;;14.50;3.85;;;3.70;99.90;;;;;;5038043;28;20231;-81
2022/01/29 02:25:38;;;;;;;13.77;3.60;;;3.70;99.90;;;;;;5038090;28;20297;-78
2022/01/29 02:28:07;;;;;;;8.90;4.53;;;3.80;99.90;;;;;;5036353;28;20246;-79
2022/01/29 02:30:35;;;;;;;11.57;4.13;;;3.80;99.90;;;;;;5036268;28;20257;-80
2022/01/29 02:33:05;;;;;;;10.15;3.38;;;3.70;99.90;;;;;;5035820;28;20310;-79
2022/01/29 02:35:31;;;;;;;13.02;4.43;;;3.60;99.90;;;;;;5036360;28;20258;-80
2022/01/29 02:37:59;;;;;;;7.82;3.90;;;3.70;99.90;;;;;;5035781;28;20227;-79
2022/01/29 02:40:28;;;;;;;16.98;4.65;;;3.70;99.90;;;;;;5036331;28;20216;-80
2022/01/29 02:42:56;;;;;;;13.73;4.50;;;3.60;99.90;;;;;;5037854;28;20203;-80
2022/01/29 02:45:23;;;;;;;16.25;3.83;;;3.60;99.90;;;;;;5036447;28;20224;-80
2022/01/29 02:47:49;;;;;;;16.80;4.05;;;3.70;99.90;;;;;;5036507;28;20633;-80
2022/01/29 02:50:16;;;;;;;14.45;3.63;;;3.60;99.90;;;;;;5036589;28;20577;-79
2022/01/29 02:52:43;;;;;;;8.48;3.47;;;3.70;99.90;;;;;;5036191;28;20253;-80
2022/01/29 02:55:10;;;;;;;15.13;4.13;;;3.70;99.90;;;;;;5036999;28;20219;-79
2022/01/29 02:57:38;;;;;;;35.30;6.53;;;3.60;99.90;;;;;;5036185;28;20215;-80
2022/01/29 03:00:10;;;;;;;15.82;4.72;;;3.60;99.90;;;;;;5037309;28;20211;-80
2022/01/29 03:02:37;;;;;;;14.15;5.90;;;3.60;99.90;;;;;;5036851;28;20192;-80
2022/01/29 03:05:04;;;;;;;13.25;4.00;;;3.50;99.90;;;;;;5040484;28;20270;-80
2022/01/29 03:07:31;;;;;;;9.35;4.07;;;3.50;99.90;;;;;;5043482;28;20203;-78
2022/01/29 03:09:57;;;;;;;12.35;4.57;;;3.40;99.90;;;;;;5041153;28;20250;-79
2022/01/29 03:12:24;;;;;;;14.00;4.70;;;3.40;99.90;;;;;;5041827;28;20203;-79
2022/01/29 03:14:53;;;;;;;11.70;4.90;;;3.40;99.90;;;;;;5041805;28;20228;-79
2022/01/29 03:17:19;;;;;;;12.65;4.07;;;3.30;99.90;;;;;;5039537;28;20670;-79
2022/01/29 03:19:46;;;;;;;11.98;3.83;;;3.20;99.90;;;;;;5038171;28;20219;-79
2022/01/29 03:22:12;;;;;;;12.70;5.97;;;3.30;99.90;;;;;;5036221;28;20695;-78
2022/01/29 03:24:39;;;;;;;15.05;4.60;;;;;;;;;;5061142;22;20289;-82
2022/01/29 03:27:06;;;;;;;14.48;4.80;;;3.30;99.90;;;;;;5040112;28;20192;-81
2022/01/29 03:29:33;;;;;;;20.55;5.78;;;3.40;99.90;;;;;;5038537;28;20200;-81
2022/01/29 03:32:01;;;;;;;18.60;5.50;;;3.30;99.90;;;;;;5037144;28;20234;-82
2022/01/29 03:34:27;;;;;;;11.45;5.15;;;3.30;99.90;;;;;;5037473;28;20280;-82
2022/01/29 03:36:55;;;;;;;16.60;5.05;;;3.20;99.90;;;;;;5037161;28;20203;-81
2022/01/29 03:39:27;;;;;;;14.00;5.05;;;3.20;99.90;;;;;;5038000;28;20226;-80
2022/01/29 03:42:00;;;;;;;22.92;5.80;;;3.20;99.90;;;;;;5037856;28;20218;-82
2022/01/29 03:44:27;;;;;;;20.13;4.95;;;3.20;99.90;;;;;;5038632;28;20223;-83
2022/01/29 03:46:53;;;;;;;11.00;5.20;;;3.20;99.90;;;;;;5048980;28;20262;-81
2022/01/29 03:49:21;;;;;;;14.77;6.22;;;3.20;99.90;;;;;;5054689;28;20226;-80
2022/01/29 03:51:48;;;;;;;20.27;5.10;;;3.30;99.90;;;;;;5053661;28;20281;-79
2022/01/29 03:54:14;;;;;;;11.63;5.45;;;3.30;99.90;;;;;;5048431;28;20200;-80
2022/01/29 03:56:41;;;;;;;18.45;5.28;;;3.30;99.90;;;;;;5050110;28;20210;-79
2022/01/29 03:59:08;;;;;;;14.57;5.90;;;3.30;99.90;;;;;;5051040;28;20223;-81
2022/01/29 04:01:34;;;;;;;10.23;5.25;;;3.30;99.90;;;;;;5046352;28;20208;-81
2022/01/29 04:04:01;;;;;;;13.88;5.82;;;3.30;99.90;;;;;;5046298;28;20208;-79
2022/01/29 04:06:30;;;;;;;10.95;5.60;;;3.30;99.90;;;;;;5046906;28;20211;-80
2022/01/29 04:08:57;;;;;;;16.17;6.38;;;3.30;99.90;;;;;;5050160;28;20295;-82
2022/01/29 04:11:25;;;;;;;16.77;7.60;;;3.30;99.90;;;;;;5038330;28;20203;-80
2022/01/29 04:13:52;;;;;;;12.45;7.38;;;3.30;99.90;;;;;;5037822;28;20200;-81
2022/01/29 04:16:18;;;;;;;18.02;6.88;;;3.30;99.90;;;;;;5040322;28;20779;-82
2022/01/29 04:18:45;;;;;;;12.60;6.60;;;3.30;99.90;;;;;;5040590;28;20219;-82
2022/01/29 04:21:12;;;;;;;16.02;6.85;;;3.30;99.90;;;;;;5041386;28;20208;-81
2022/01/29 04:23:43;;;;;;;15.23;7.32;;;3.30;99.90;;;;;;5040649;28;20708;-82
2022/01/29 04:26:09;;;;;;;22.45;7.72;;;3.40;99.90;;;;;;5042619;28;20269;-80
2022/01/29 04:28:39;;;;;;;13.95;7.18;;;3.30;99.90;;;;;;5047026;28;20614;-81
2022/01/29 04:31:08;;;;;;;21.58;7.60;;;3.30;99.90;;;;;;5047172;28;20207;-80
2022/01/29 04:33:34;;;;;;;14.82;7.22;;;3.30;99.90;;;;;;5041129;28;20271;-80
2022/01/29 04:36:04;;;;;;;15.43;7.30;;;3.30;99.90;;;;;;5044873;28;20238;-80
2022/01/29 04:38:32;;;;;;;15.85;7.63;;;3.30;99.90;;;;;;5045331;28;20227;-81
2022/01/29 04:41:03;;;;;;;20.45;6.88;;;3.30;99.90;;;;;;5040425;28;20211;-81
2022/01/29 04:43:31;;;;;;;11.45;7.20;;;3.40;99.90;;;;;;5042809;28;20200;-82
2022/01/29 04:45:58;;;;;;;22.88;8.50;;;3.40;99.90;;;;;;5046493;28;20231;-83
2022/01/29 04:48:24;;;;;;;18.98;8.55;;;3.20;99.90;;;;;;5045866;28;20230;-82
2022/01/29 04:50:51;;;;;;;28.70;8.00;;;3.40;99.90;;;;;;5041487;28;20207;-82
2022/01/29 04:53:18;;;;;;;18.50;7.97;;;3.30;99.90;;;;;;5048237;28;20203;-80
2022/01/29 04:55:48;;;;;;;13.27;8.48;;;3.60;99.90;;;;;;5050886;28;20238;-80
2022/01/29 04:58:16;;;;;;;16.08;8.25;;;3.40;99.90;;;;;;5049071;28;20204;-82
2022/01/29 05:00:42;;;;;;;24.73;7.95;;;3.40;99.90;;;;;;5045463;28;20207;-80
2022/01/29 05:03:11;;;;;;;21.67;9.27;;;3.30;99.90;;;;;;5057129;28;20222;-80
2022/01/29 05:05:39;;;;;;;24.20;9.68;;;3.40;99.90;;;;;;5051060;28;20231;-81
2022/01/29 05:08:06;;;;;;;12.73;8.55;;;3.50;99.90;;;;;;5043095;28;20230;-81
2022/01/29 05:10:34;;;;;;;21.13;8.80;;;3.40;99.90;;;;;;5054153;28;20204;-82
2022/01/29 05:13:04;;;;;;;16.98;8.45;;;3.40;99.90;;;;;;5055857;28;20254;-80
2022/01/29 05:15:40;;;;;;;20.50;8.00;;;3.50;99.90;;;;;;5043008;28;20592;-81
2022/01/29 05:29:05;;;;;;;18.20;9.00;;;3.40;99.90;;;;;;5045480;28;20190;-81
2022/01/29 05:31:33;;;;;;;16.20;8.32;;;3.50;99.90;;;;;;5042431;28;20203;-81
2022/01/29 05:34:01;;;;;;;18.95;9.50;;;3.40;99.90;;;;;;5044112;28;20261;-78
2022/01/29 05:36:28;;;;;;;21.48;10.48;;;3.50;99.90;;;;;;5049711;28;20286;-78
2022/01/29 05:38:54;;;;;;;21.95;10.35;;;3.50;99.90;;;;;;5049280;28;20220;-78
2022/01/29 05:41:21;;;;;;;17.17;9.38;;;3.50;99.90;;;;;;5051329;28;20227;-78
2022/01/29 05:43:49;;;;;;;18.58;9.80;;;3.60;99.90;;;;;;5059387;28;20196;-78
2022/01/29 05:46:16;;;;;;;23.08;9.07;;;3.50;99.90;;;;;;5059322;28;20214;-80
2022/01/29 05:48:45;;;;;;;17.75;9.98;;;3.70;99.90;;;;;;5059323;28;20234;-81
2022/01/29 05:51:14;;;;;;;24.20;10.95;;;3.50;99.90;;;;;;5052488;28;20204;-79
2022/01/29 05:53:40;;;;;;;20.27;9.95;;;3.50;99.90;;;;;;5047917;28;20238;-80
2022/01/29 05:56:07;;;;;;;17.67;10.25;;;3.60;99.90;;;;;;5048912;28;20227;-79
2022/01/29 05:58:34;;;;;;;12.90;9.07;;;3.50;99.90;;;;;;5052880;28;20208;-79
2022/01/29 06:01:01;;;;;;;16.20;9.95;;;3.50;99.90;;;;;;5058781;28;20176;-79
2022/01/29 06:03:28;;;;;;;17.77;11.88;;;3.40;99.90;;;;;;5059002;28;20196;-78
2022/01/29 06:05:55;;;;;;;16.38;10.40;;;3.60;99.90;;;;;;5057671;28;20444;-80
2022/01/29 06:08:22;;;;;;;23.02;10.43;;;3.50;99.90;;;;;;5050453;28;20204;-79
2022/01/29 06:10:49;;;;;;;20.30;10.45;;;3.60;99.90;;;;;;5051544;28;20204;-80
2022/01/29 06:13:17;;;;;;;23.92;10.02;;;3.50;99.90;;;;;;5052382;28;20207;-78
2022/01/29 06:15:46;;;;;;;20.85;8.57;;;3.60;99.90;;;;;;5043213;28;20231;-79
2022/01/29 06:18:15;;;;;;;17.35;9.60;;;3.60;99.90;;;;;;5040557;28;20210;-80
2022/01/29 06:20:42;;;;;;;20.75;10.65;;;3.60;99.90;;;;;;5039869;28;20227;-80
2022/01/29 06:23:12;;;;;;;17.17;10.75;;;3.70;99.90;;;;;;5039923;28;20258;-81
2022/01/29 06:25:38;;;;;;;25.10;10.32;;;3.60;99.90;;;;;;5038732;28;20231;-81
2022/01/29 06:28:05;;;;;;;18.40;10.50;;;3.60;99.90;;;;;;5040824;28;20203;-80
2022/01/29 06:30:32;;;;;;;20.50;10.95;;;3.60;99.90;;;;;;5043733;28;20204;-80
2022/01/29 06:33:07;;;;;;;30.08;15.00;;;3.60;99.90;;;;;;5042902;28;20235;-81
2022/01/29 06:35:34;;;;;;;23.90;11.25;;;3.60;99.90;;;;;;5040413;28;20234;-80
2022/01/29 06:38:01;;;;;;;18.55;13.25;;;3.60;99.90;;;;;;5037555;28;20258;-79
2022/01/29 06:40:29;;;;;;;19.67;10.20;;;3.60;99.90;;;;;;5038185;28;20612;-82
2022/01/29 06:42:56;;;;;;;17.67;9.88;;;3.60;99.90;;;;;;5038823;28;20571;-82
2022/01/29 06:45:23;;;;;;;20.70;12.00;;;3.60;99.90;;;;;;5038861;28;20223;-79
2022/01/29 06:47:50;;;;;;;21.92;10.77;;;3.60;99.90;;;;;;5039272;28;20617;-80
2022/01/29 06:50:16;;;;;;;19.35;11.00;;;3.60;99.90;;;;;;5039150;28;20199;-80
2022/01/29 06:52:43;;;;;;;27.05;11.88;;;3.50;99.90;;;;;;5039297;28;20200;-81
2022/01/29 06:55:09;;;;;;;20.77;11.60;;;3.60;99.90;;;;;;5038786;28;20237;-81
2022/01/29 06:57:37;;;;;;;21.60;11.32;;;3.60;99.90;;;;;;5038796;28;20655;-81
2022/01/29 07:00:07;;;;;;;20.98;11.00;;;3.70;99.90;;;;;;5038705;28;20274;-81
2022/01/29 07:02:33;;;;;;;20.15;12.07;;;3.60;99.90;;;;;;5038735;28;20674;-82
2022/01/29 07:05:03;;;;;;;23.60;12.93;;;3.60;99.90;;;;;;5039766;28;20448;-81
2022/01/29 07:07:30;;;;;;;30.65;13.98;;;3.70;99.90;;;;;;5047086;28;20437;-80
2022/01/29 07:09:56;;;;;;;22.88;12.60;;;3.70;99.90;;;;;;5043192;28;20203;-80
2022/01/29 07:12:24;;;;;;;17.88;11.98;;;3.70;99.90;;;;;;5042208;28;20204;-80
2022/01/29 07:14:52;;;;;;;22.40;12.45;;;3.70;99.90;;;;;;5038276;28;20224;-80
2022/01/29 07:17:22;;;;;;;19.15;11.40;;;3.70;99.90;;;;;;5039008;28;20586;-80
2022/01/29 07:19:50;;;;;;;23.33;11.95;;;3.80;99.90;;;;;;5047179;28;20227;-78
2022/01/29 07:22:18;;;;;;;19.15;11.32;;;3.80;99.90;;;;;;5049648;28;20207;-79
2022/01/29 07:24:46;;;;;;;21.00;11.52;;;3.80;99.90;;;;;;5048648;28;20235;-80
2022/01/29 07:27:13;;;;;;;23.92;14.10;;;3.80;99.90;;;;;;5042058;28;20679;-81
2022/01/29 07:29:40;;;;;;;17.15;12.00;;;3.90;99.90;;;;;;5042027;28;20208;-79
2022/01/29 07:32:09;;;;;;;18.98;12.68;;;3.80;99.90;;;;;;5049036;28;20211;-79
2022/01/29 07:34:35;;;;;;;24.35;14.70;;;3.80;99.90;;;;;;5047941;28;20223;-79
2022/01/29 07:37:02;;;;;;;26.10;13.48;;;3.80;99.90;;;;;;5045925;28;20203;-82
2022/01/29 07:39:32;;;;;;;25.27;11.60;;;3.80;99.90;;;;;;5042816;28;20219;-82
2022/01/29 07:41:59;;;;;;;22.50;13.23;;;3.80;99.90;;;;;;5040886;28;20263;-81
2022/01/29 07:44:26;;;;;;;22.77;13.43;;;3.80;99.90;;;;;;5044536;28;20302;-80
2022/01/29 07:46:53;;;;;;;18.90;11.88;;;3.80;99.90;;;;;;5043502;28;20200;-82
2022/01/29 07:49:21;;;;;;;23.50;13.70;;;3.90;99.90;;;;;;5044934;28;20732;-83
2022/01/29 07:51:48;;;;;;;18.25;12.55;;;3.90;99.90;;;;;;5048068;28;20207;-81
2022/01/29 07:54:14;;;;;;;21.80;13.73;;;3.70;99.90;;;;;;5048931;28;20199;-80
2022/01/29 07:56:41;;;;;;;21.02;13.00;;;4.20;99.90;;;;;;5050904;28;20208;-82
2022/01/29 07:59:08;;;;;;;26.17;13.95;;;3.90;99.90;;;;;;5049881;28;20210;-80
2022/01/29 08:01:34;;;;;;;28.05;16.13;;;3.90;99.90;;;;;;5048534;28;20226;-81
2022/01/29 08:04:04;;;;;;;22.27;12.70;;;4.00;99.90;;;;;;5045818;28;20215;-80
2022/01/29 08:06:32;;;;;;;24.40;14.15;;;4.00;99.90;;;;;;5046219;28;20199;-79
2022/01/29 08:08:59;;;;;;;19.38;12.70;;;3.90;99.90;;;;;;5046385;28;20666;-79
2022/01/29 08:11:26;;;;;;;20.15;13.98;;;3.90;99.90;;;;;;5047170;28;20258;-79
2022/01/29 08:13:53;;;;;;;20.38;12.73;;;4.00;99.90;;;;;;5047756;28;20227;-78
2022/01/29 08:16:19;;;;;;;24.85;13.50;;;4.00;99.90;;;;;;5051519;28;20232;-78
2022/01/29 08:18:49;;;;;;;21.75;12.68;;;4.00;99.90;;;;;;5052171;28;20195;-79
2022/01/29 08:21:16;;;;;;;21.67;14.00;;;4.00;99.90;;;;;;5059330;28;20283;-82
2022/01/29 08:23:45;;;;;;;17.48;11.30;;;4.10;99.90;;;;;;5056407;28;20237;-82
2022/01/29 08:26:12;;;;;;;20.60;12.85;;;4.10;99.90;;;;;;5053977;28;20235;-79
2022/01/29 08:28:48;;;;;;;21.42;14.02;;;4.40;99.90;;;;;;5057320;28;20187;-79
2022/01/29 08:31:15;;;;;;;22.48;13.25;;;;;;;;;;5056950;28;20198;-80
2022/01/29 08:33:42;;;;;;;19.67;12.23;;;4.20;99.90;;;;;;5054171;28;20211;-81
2022/01/29 08:36:26;;;;;;;;;;;;;;;;;;;;;
2022/01/29 08:38:58;;;;;;;20.10;12.55;;;4.20;99.90;;;;;;5057137;28;20231;-80
2022/01/29 08:41:24;;;;;;;20.38;12.70;;;4.20;99.90;;;;;;5055866;28;20224;-83
2022/01/29 08:43:51;;;;;;;22.55;12.25;;;4.20;99.90;;;;;;5056142;28;20234;-81
2022/01/29 08:46:17;;;;;;;26.17;14.88;;;4.10;99.90;;;;;;5054852;28;20429;-81
2022/01/29 08:48:44;;;;;;;23.00;14.32;;;4.30;99.90;;;;;;5054911;28;20204;-80
2022/01/29 08:51:11;;;;;;;21.23;15.57;;;4.20;99.90;;;;;;5054371;28;20204;-80
2022/01/29 08:53:37;;;;;;;23.80;13.57;;;4.30;99.90;;;;;;5053987;28;20246;-81
2022/01/29 08:56:06;;;;;;;23.75;13.10;;;4.30;99.90;;;;;;5052162;28;20254;-81
2022/01/29 08:58:32;;;;;;;24.75;13.88;;;4.30;99.90;;;;;;5052157;28;20208;-81
2022/01/29 09:00:59;;;;;;;20.08;13.40;;;4.30;99.90;;;;;;5052564;28;20255;-81
2022/01/29 09:03:26;;;;;;;24.42;15.10;;;4.30;99.90;;;;;;5055787;28;20207;-84
2022/01/29 09:05:53;;;;;;;25.13;14.88;;;4.40;99.90;;;;;;5057867;28;20678;-82
2022/01/29 09:08:20;;;;;;;18.33;13.75;;;4.40;99.90;;;;;;5056092;28;20200;-81
2022/01/29 09:10:48;;;;;;;21.85;13.77;;;4.40;99.90;;;;;;5056899;28;20200;-80
2022/01/29 09:13:27;;;;;;;18.95;13.80;;;4.40;99.90;;;;;;5055726;28;20583;-80
2022/01/29 09:19:02;;;;;;;24.00;14.60;;;4.60;99.90;;;;;;5057811;28;20199;-81
2022/01/29 09:21:29;;;;;;;25.92;15.45;;;;;;;;;;5056166;28;20215;-80
2022/01/29 09:23:56;;;;;;;27.95;15.88;;;4.70;99.90;;;;;;5057030;28;20218;-79
2022/01/29 09:26:23;;;;;;;23.65;13.98;;;4.60;99.90;;;;;;5089188;22;20241;-81
2022/01/29 09:28:53;;;;;;;31.27;14.70;;;4.60;99.90;;;;;;5061750;28;20261;-81
2022/01/29 09:31:20;;;;;;;20.77;13.40;;;4.70;99.90;;;;;;5063461;28;20591;-81
2022/01/29 09:33:46;;;;;;;24.17;14.20;;;4.70;99.90;;;;;;5063086;28;20199;-82
2022/01/29 09:36:13;;;;;;;21.08;13.68;;;4.70;99.90;;;;;;5063405;28;20219;-81
2022/01/29 09:38:40;;;;;;;29.15;16.50;;;4.80;99.90;;;;;;5063220;28;20191;-81
2022/01/29 09:41:09;;;;;;;22.55;14.07;;;4.80;99.90;;;;;;5067299;28;20218;-81
2022/01/29 09:43:36;;;;;;;22.63;14.10;;;4.80;99.90;;;;;;5078010;28;20213;-81
2022/01/29 09:46:05;;;;;;;21.67;13.75;;;4.90;99.90;;;;;;5077160;28;20223;-81
2022/01/29 09:48:32;;;;;;;26.55;15.68;;;4.90;99.90;;;;;;5074252;28;20207;-82
2022/01/29 09:50:59;;;;;;;25.17;15.90;;;4.90;99.90;;;;;;5067626;28;20203;-80
2022/01/29 09:53:26;;;;;;;24.00;14.70;;;4.90;99.90;;;;;;5072652;28;20203;-80
2022/01/29 09:55:53;;;;;;;25.00;15.65;;;4.90;99.90;;;;;;5077702;28;20227;-80
2022/01/29 09:58:20;;;;;;;31.10;16.95;;;5.00;99.90;;;;;;5078113;28;20209;-80
2022/01/29 10:00:47;;;;;;;23.85;14.70;;;5.00;99.90;;;;;;5076591;28;20218;-80
2022/01/29 10:03:17;;;;;;;32.80;20.33;;;5.10;99.90;;;;;;5063075;28;20237;-80
2022/01/29 10:05:46;;;;;;;28.35;16.38;;;5.20;99.90;;;;;;5062969;28;20234;-81
2022/01/29 10:08:13;;;;;;;30.08;15.95;;;5.20;99.90;;;;;;5063069;28;20599;-82
2022/01/29 10:10:41;;;;;;;30.10;17.35;;;5.20;99.90;;;;;;5068647;28;20204;-81
2022/01/29 10:13:29;;;;;;;27.40;17.10;;;5.30;99.90;;;;;;5060918;28;20661;-81
2022/01/29 10:16:06;;;;;;;32.50;18.83;;;5.30;99.90;;;;;;5062228;28;20223;-81
2022/01/29 10:18:35;;;;;;;31.55;18.25;;;5.30;99.90;;;;;;5062305;28;20194;-82
2022/01/29 10:21:11;;;;;;;30.02;16.30;;;7.70;99.90;;;;;;5061607;28;20222;-81
2022/01/29 10:23:39;;;;;;;33.10;19.20;;;5.50;99.90;;;;;;5061889;28;20197;-81
2022/01/29 10:26:07;;;;;;;36.85;19.30;;;5.50;99.90;;;;;;5062817;28;20260;-81
2022/01/29 10:28:34;;;;;;;32.10;19.20;;;5.60;99.90;;;;;;5063300;28;20209;-82
2022/01/29 10:31:03;;;;;;;36.92;20.70;;;5.60;99.90;;;;;;5060917;28;20438;-82
2022/01/29 10:33:31;;;;;;;32.03;20.48;;;5.70;99.90;;;;;;5062329;28;20313;-82
2022/01/29 10:36:01;;;;;;;33.10;19.98;;;5.70;99.90;;;;;;5064987;28;20443;-82
2022/01/29 10:38:30;;;;;;;44.47;20.45;;;5.70;99.90;;;;;;5068430;28;20199;-81
2022/01/29 10:41:11;;;;;;;30.85;18.40;;;5.80;99.90;;;;;;5067328;28;20225;-82
2022/01/29 10:43:58;;;;;;;33.53;18.95;;;5.80;99.90;;;;;;5075967;28;20424;-80
2022/01/29 10:46:26;;;;;;;37.72;20.85;;;5.90;99.90;;;;;;5077865;28;20223;-81
2022/01/29 10:48:52;;;;;;;33.53;18.27;;;5.90;99.90;;;;;;5077787;28;20190;-81
2022/01/29 10:51:20;;;;;;;30.15;16.48;;;5.90;99.90;;;;;;5076855;28;20229;-80
2022/01/29 10:53:47;;;;;;;31.58;18.67;;;5.90;99.90;;;;;;5076159;28;20190;-82
2022/01/29 10:56:13;;;;;;;29.30;17.77;;;6.00;99.90;;;;;;5076358;28;20223;-81
2022/01/29 10:58:41;;;;;;;33.35;18.85;;;6.00;99.90;;;;;;5068864;28;20214;-82
2022/01/29 11:01:11;;;;;;;28.02;17.38;;;6.10;99.90;;;;;;5065547;28;20219;-82
2022/01/29 11:03:37;;;;;;;28.02;18.98;;;6.10;99.90;;;;;;5064016;28;20225;-82
2022/01/29 11:06:04;;;;;;;25.80;18.65;;;6.20;99.90;;;;;;5065715;28;20245;-80
2022/01/29 11:08:34;;;;;;;29.92;17.17;;;6.20;99.90;;;;;;5075737;28;20203;-82
2022/01/29 11:11:02;;;;;;;28.08;18.48;;;6.30;99.90;;;;;;5074988;28;20210;-81
2022/01/29 11:13:29;;;;;;;30.75;17.85;;;6.20;99.90;;;;;;5073724;28;20236;-81
2022/01/29 11:15:57;;;;;;;22.27;15.90;;;6.30;99.90;;;;;;5066067;28;20280;-82
2022/01/29 11:18:26;;;;;;;30.08;19.13;;;6.30;99.90;;;;;;5059469;28;20241;-82
2022/01/29 11:20:53;;;;;;;26.55;17.10;;;6.40;99.90;;;;;;5060447;28;20701;-83
2022/01/29 11:23:21;;;;;;;27.70;17.13;;;6.50;99.90;;;;;;5060048;28;20269;-82
2022/01/29 11:25:54;;;;;;;20.85;14.85;;;6.50;99.90;;;;;;5060042;28;20364;-82
2022/01/29 11:28:23;;;;;;;24.42;14.90;;;6.60;99.90;;;;;;5062683;28;20273;-82
2022/01/29 11:31:20;;;;;;;22.35;14.98;;;6.70;99.90;;;;;;5071711;28;20229;-82
2022/01/29 11:34:22;;;;;;;21.08;15.00;;;6.70;99.90;;;;;;5077100;28;20270;-82
2022/01/29 11:37:06;;;;;;;17.67;13.48;;;6.60;99.90;;;;;;5046583;28;20202;-81
2022/01/29 11:39:36;;;;;;;19.52;14.05;;;6.80;99.90;;;;;;5068895;28;20673;-82
2022/01/29 11:42:32;;;;;;;20.08;14.38;;;7.10;99.90;;;;;;5062531;28;20206;-82
2022/01/29 11:45:38;;;;;;;18.33;14.43;;;6.80;99.90;;;;;;5076626;28;20211;-81
2022/01/29 11:48:06;;;;;;;18.58;13.40;;;6.90;99.90;;;;;;5062972;28;20236;-82
2022/01/29 11:50:46;;;;;;;18.95;12.40;;;6.90;99.90;;;;;;5063029;28;20443;-83
2022/01/29 11:53:14;;;;;;;18.80;12.32;;;6.90;99.90;;;;;;5062208;28;20202;-83
2022/01/29 11:55:43;;;;;;;19.08;13.45;;;6.90;99.90;;;;;;5060743;28;20828;-82
2022/01/29 11:58:33;;;;;;;15.93;11.63;;;7.00;99.90;;;;;;5060721;28;20226;-82
2022/01/29 12:01:03;;;;;;;18.33;12.88;;;7.00;99.90;;;;;;5061248;28;20229;-83
2022/01/29 12:03:56;;;;;;;15.38;10.95;;;7.00;99.90;;;;;;5062121;28;20214;-82
2022/01/29 12:06:26;;;;;;;14.48;10.90;;;7.10;99.90;;;;;;5058265;28;20219;-82
2022/01/29 12:09:33;;;;;;;12.75;10.90;;;7.10;99.90;;;;;;5061321;28;20440;-81
2022/01/29 12:12:20;;;;;;;15.60;10.73;;;7.10;99.90;;;;;;5061266;28;20203;-82
2022/01/29 12:14:50;;;;;;;14.25;10.27;;;7.10;99.90;;;;;;5061208;28;20245;-83
2022/01/29 12:17:36;;;;;;;18.58;11.98;;;7.20;99.90;;;;;;5067078;28;20190;-82
2022/01/29 12:20:05;;;;;;;12.43;10.32;;;7.30;99.90;;;;;;5070290;28;20203;-82
2022/01/29 12:22:35;;;;;;;16.98;11.93;;;7.20;99.90;;;;;;5071529;28;20230;-82
2022/01/29 12:25:05;;;;;;;12.88;11.00;;;7.20;99.90;;;;;;5068443;28;20231;-81
2022/01/29 12:27:47;;;;;;;17.27;12.63;;;7.30;99.90;;;;;;5066124;28;20207;-82
2022/01/29 12:30:21;;;;;;;13.52;10.52;;;7.30;99.90;;;;;;5065371;28;20217;-81
2022/01/29 12:32:57;;;;;;;11.60;9.00;;;7.30;99.90;;;;;;5067725;28;20186;-82
2022/01/29 12:35:32;;;;;;;13.95;10.27;;;7.40;99.90;;;;;;5062228;28;20227;-82
2022/01/29 12:37:59;;;;;;;13.00;9.02;;;7.40;99.90;;;;;;5064789;28;20187;-82
2022/01/29 12:40:27;;;;;;;14.07;8.43;;;7.40;99.90;;;;;;5063540;28;20678;-83
2022/01/29 12:42:57;;;;;;;16.92;9.88;;;7.50;99.90;;;;;;5063077;28;20257;-83
2022/01/29 12:45:27;;;;;;;16.23;10.65;;;7.40;99.90;;;;;;5064868;28;20231;-83
2022/01/29 12:48:07;;;;;;;12.35;8.93;;;7.40;99.90;;;;;;5065083;28;20187;-83
2022/01/29 12:50:34;;;;;;;15.73;10.88;;;7.40;99.90;;;;;;5067324;28;20187;-82
2022/01/29 12:53:08;;;;;;;12.45;11.00;;;7.40;99.90;;;;;;5067605;28;20244;-82
2022/01/29 12:55:36;;;;;;;14.18;10.40;;;7.60;99.90;;;;;;5066369;28;20230;-83
2022/01/29 12:58:04;;;;;;;14.35;9.95;;;7.60;99.90;;;;;;5065316;28;20207;-82
2022/01/29 13:00:34;;;;;;;16.05;12.57;;;7.60;99.90;;;;;;5065359;28;20195;-82
2022/01/29 13:03:09;;;;;;;10.18;8.25;;;7.60;99.90;;;;;;5065509;28;20267;-82
2022/01/29 13:05:43;;;;;;;12.60;8.85;;;7.70;99.90;;;;;;5066051;28;20222;-82